createdAt,value
2024-02-10T00:00:54.791Z,26.85
2024-02-10T00:01:54.911Z,26.85
2024-02-10T00:02:54.884Z,26.88
2024-02-10T00:03:54.865Z,26.85
2024-02-10T00:04:55.148Z,26.87
2024-02-10T00:05:54.971Z,26.87
2024-02-10T00:06:54.986Z,26.84
2024-02-10T00:07:55.027Z,26.85
2024-02-10T00:08:55.116Z,26.84
2024-02-10T00:09:55.129Z,26.88
2024-02-10T00:10:55.219Z,26.85
2024-02-10T00:11:55.154Z,26.84
2024-02-10T00:12:55.160Z,26.85
2024-02-10T00:13:55.399Z,26.84
2024-02-10T00:14:55.312Z,26.84
2024-02-10T00:15:55.390Z,26.87
2024-02-10T00:16:55.574Z,26.84
2024-02-10T00:17:55.439Z,26.87
2024-02-10T00:18:55.377Z,26.84
2024-02-10T00:19:55.463Z,26.84
2024-02-10T00:20:55.414Z,26.84
2024-02-10T00:21:55.416Z,26.82
2024-02-10T00:22:55.718Z,26.85
2024-02-10T00:23:55.699Z,26.81
2024-02-10T00:24:55.549Z,26.84
2024-02-10T00:25:55.602Z,26.84
2024-02-10T00:26:55.604Z,26.87
2024-02-10T00:27:56.146Z,26.82
2024-02-10T00:28:55.743Z,26.81
2024-02-10T00:29:55.674Z,26.84
2024-02-10T00:30:55.741Z,26.84
2024-02-10T00:31:55.818Z,26.81
2024-02-10T00:32:55.861Z,26.82
2024-02-10T00:33:55.958Z,26.81
2024-02-10T00:34:55.925Z,26.85
2024-02-10T00:35:55.875Z,26.82
2024-02-10T00:36:55.993Z,26.82
2024-02-10T00:37:56.019Z,26.82
2024-02-10T00:38:55.999Z,26.84
2024-02-10T00:39:56.028Z,26.81
2024-02-10T00:40:56.230Z,26.82
2024-02-10T00:41:56.061Z,26.84
2024-02-10T00:42:56.121Z,26.81
2024-02-10T00:43:56.126Z,26.81
2024-02-10T00:44:56.154Z,26.84
2024-02-10T00:45:56.260Z,26.82
2024-02-10T00:46:56.292Z,26.81
2024-02-10T00:47:56.336Z,26.82
2024-02-10T00:48:56.450Z,26.84
2024-02-10T00:49:56.408Z,26.82
2024-02-10T00:50:56.343Z,26.82
2024-02-10T00:51:56.435Z,26.84
2024-02-10T00:52:56.454Z,26.82
2024-02-10T00:53:56.463Z,26.80
2024-02-10T00:54:56.456Z,26.82
2024-02-10T00:55:56.708Z,26.81
2024-02-10T00:56:56.603Z,26.82
2024-02-10T00:57:56.601Z,26.84
2024-02-10T00:58:56.700Z,26.80
2024-02-10T00:59:56.678Z,26.82
2024-02-10T01:00:56.754Z,26.80
2024-02-10T01:01:56.754Z,26.78
2024-02-10T01:02:56.780Z,26.81
2024-02-10T01:03:56.898Z,26.80
2024-02-10T01:04:56.942Z,26.78
2024-02-10T01:05:56.993Z,26.82
2024-02-10T01:06:57.007Z,26.81
2024-02-10T01:07:56.991Z,26.80
2024-02-10T01:08:57.009Z,26.81
2024-02-10T01:09:57.075Z,26.82
2024-02-10T01:10:57.205Z,26.81
2024-02-10T01:11:57.162Z,26.80
2024-02-10T01:12:57.162Z,26.81
2024-02-10T01:13:57.237Z,26.78
2024-02-10T01:14:57.226Z,26.78
2024-02-10T01:15:57.270Z,26.80
2024-02-10T01:16:57.327Z,26.80
2024-02-10T01:17:57.391Z,26.81
2024-02-10T01:18:57.548Z,26.78
2024-02-10T01:19:57.473Z,26.80
2024-02-10T01:20:57.412Z,26.80
2024-02-10T01:21:57.506Z,26.80
2024-02-10T01:22:57.635Z,26.80
2024-02-10T01:23:57.589Z,26.78
2024-02-10T01:24:57.752Z,26.80
2024-02-10T01:25:57.808Z,26.78
2024-02-10T01:26:57.652Z,26.80
2024-02-10T01:27:57.701Z,26.78
2024-02-10T01:28:57.796Z,26.80
2024-02-10T01:29:57.760Z,26.80
2024-02-10T01:30:57.800Z,26.80
2024-02-10T01:31:57.914Z,26.78
2024-02-10T01:32:57.963Z,26.81
2024-02-10T01:33:57.963Z,26.78
2024-02-10T01:34:57.971Z,26.80
2024-02-10T01:35:57.892Z,26.77
2024-02-10T01:36:57.948Z,26.77
2024-02-10T01:37:57.984Z,26.78
2024-02-10T01:38:57.993Z,26.75
2024-02-10T01:39:58.079Z,26.78
2024-02-10T01:40:58.151Z,26.78
2024-02-10T01:41:58.150Z,26.77
2024-02-10T01:42:58.122Z,26.75
2024-02-10T01:43:58.239Z,26.78
2024-02-10T01:44:58.182Z,26.80
2024-02-10T01:45:58.218Z,26.75
2024-02-10T01:46:58.338Z,26.78
2024-02-10T01:47:58.295Z,26.78
2024-02-10T01:48:58.325Z,26.78
2024-02-10T01:49:58.420Z,26.78
2024-02-10T01:50:58.401Z,26.77
2024-02-10T01:51:58.397Z,26.77
2024-02-10T01:52:58.424Z,26.75
2024-02-10T01:53:58.414Z,26.78
2024-02-10T01:54:58.473Z,26.80
2024-02-10T01:55:58.560Z,26.78
2024-02-10T01:56:58.493Z,26.78
2024-02-10T01:57:58.535Z,26.80
2024-02-10T01:58:58.616Z,26.80
2024-02-10T01:59:58.660Z,26.80
2024-02-10T02:00:58.665Z,26.78
2024-02-10T02:01:58.706Z,26.78
2024-02-10T02:02:58.721Z,26.81
2024-02-10T02:03:58.835Z,26.78
2024-02-10T02:04:58.825Z,26.78
2024-02-10T02:05:58.882Z,26.78
2024-02-10T02:06:58.865Z,26.78
2024-02-10T02:07:58.920Z,26.80
2024-02-10T02:08:58.945Z,26.78
2024-02-10T02:09:58.985Z,26.78
2024-02-10T02:10:59.047Z,26.77
2024-02-10T02:11:59.079Z,26.78
2024-02-10T02:12:59.208Z,26.75
2024-02-10T02:13:59.120Z,26.78
2024-02-10T02:14:59.274Z,26.77
2024-02-10T02:15:59.202Z,26.78
2024-02-10T02:16:59.251Z,26.78
2024-02-10T02:17:59.333Z,26.78
2024-02-10T02:18:59.468Z,26.75
2024-02-10T02:19:59.383Z,26.78
2024-02-10T02:20:59.421Z,26.78
2024-02-10T02:21:59.470Z,26.77
2024-02-10T02:22:59.645Z,26.77
2024-02-10T02:23:59.508Z,26.74
2024-02-10T02:24:59.553Z,26.74
2024-02-10T02:25:59.631Z,26.74
2024-02-10T02:26:59.672Z,26.78
2024-02-10T02:27:59.740Z,26.75
2024-02-10T02:28:59.732Z,26.77
2024-02-10T02:29:59.783Z,26.77
2024-02-10T02:30:59.794Z,26.77
2024-02-10T02:31:59.812Z,26.74
2024-02-10T02:32:59.875Z,26.75
2024-02-10T02:33:59.946Z,26.75
2024-02-10T02:35:00.017Z,26.75
2024-02-10T02:35:59.969Z,26.77
2024-02-10T02:37:00.009Z,26.73
2024-02-10T02:38:00.122Z,26.75
2024-02-10T02:39:00.088Z,26.75
2024-02-10T02:40:00.113Z,26.77
2024-02-10T02:41:00.230Z,26.77
2024-02-10T02:42:00.172Z,26.74
2024-02-10T02:43:00.214Z,26.78
2024-02-10T02:44:00.232Z,26.78
2024-02-10T02:45:00.270Z,26.75
2024-02-10T02:46:00.299Z,26.73
2024-02-10T02:47:00.420Z,26.75
2024-02-10T02:48:00.445Z,26.74
2024-02-10T02:49:00.514Z,26.75
2024-02-10T02:50:00.541Z,26.75
2024-02-10T02:51:00.487Z,26.73
2024-02-10T02:52:00.530Z,26.75
2024-02-10T02:53:00.624Z,26.75
2024-02-10T02:54:00.609Z,26.74
2024-02-10T02:55:00.667Z,26.75
2024-02-10T02:56:00.743Z,26.75
2024-02-10T02:57:00.664Z,26.71
2024-02-10T02:58:00.692Z,26.74
2024-02-10T02:59:00.872Z,26.73
2024-02-10T03:00:00.813Z,26.74
2024-02-10T03:01:00.887Z,26.75
2024-02-10T03:02:00.945Z,26.75
2024-02-10T03:03:00.915Z,26.71
2024-02-10T03:04:01.101Z,26.74
2024-02-10T03:05:01.038Z,26.74
2024-02-10T03:06:01.076Z,26.73
2024-02-10T03:07:01.120Z,26.74
2024-02-10T03:08:01.183Z,26.73
2024-02-10T03:09:01.181Z,26.71
2024-02-10T03:10:01.179Z,26.73
2024-02-10T03:11:01.261Z,26.73
2024-02-10T03:12:01.254Z,26.73
2024-02-10T03:13:01.367Z,26.71
2024-02-10T03:14:01.421Z,26.73
2024-02-10T03:15:01.452Z,26.74
2024-02-10T03:16:01.363Z,26.73
2024-02-10T03:17:01.445Z,26.73
2024-02-10T03:18:01.563Z,26.71
2024-02-10T03:19:01.533Z,26.73
2024-02-10T03:20:01.723Z,26.73
2024-02-10T03:21:01.617Z,26.71
2024-02-10T03:22:01.655Z,26.71
2024-02-10T03:23:01.671Z,26.74
2024-02-10T03:24:01.665Z,26.73
2024-02-10T03:25:01.759Z,26.71
2024-02-10T03:26:01.767Z,26.71
2024-02-10T03:27:01.775Z,26.73
2024-02-10T03:28:01.867Z,26.74
2024-02-10T03:29:01.911Z,26.73
2024-02-10T03:30:02.004Z,26.73
2024-02-10T03:31:01.920Z,26.71
2024-02-10T03:32:01.993Z,26.73
2024-02-10T03:33:02.066Z,26.71
2024-02-10T03:34:02.151Z,26.74
2024-02-10T03:35:02.248Z,26.73
2024-02-10T03:36:02.117Z,26.70
2024-02-10T03:37:02.189Z,26.70
2024-02-10T03:38:02.221Z,26.74
2024-02-10T03:39:02.237Z,26.73
2024-02-10T03:40:02.291Z,26.73
2024-02-10T03:41:02.369Z,26.73
2024-02-10T03:42:02.389Z,26.70
2024-02-10T03:43:02.433Z,26.70
2024-02-10T03:44:02.444Z,26.71
2024-02-10T03:45:02.491Z,26.68
2024-02-10T03:46:02.555Z,26.70
2024-02-10T03:47:02.654Z,26.70
2024-02-10T03:48:02.763Z,26.71
2024-02-10T03:49:03.384Z,26.71
2024-02-10T03:50:02.874Z,26.71
2024-02-10T03:51:02.730Z,26.71
2024-02-10T03:52:02.829Z,26.73
2024-02-10T03:53:02.866Z,26.71
2024-02-10T03:54:02.866Z,26.71
2024-02-10T03:55:02.884Z,26.70
2024-02-10T03:56:02.983Z,26.71
2024-02-10T03:57:02.936Z,26.71
2024-02-10T03:58:02.973Z,26.70
2024-02-10T03:59:03.059Z,26.73
2024-02-10T04:00:03.058Z,26.71
2024-02-10T04:01:03.167Z,26.71
2024-02-10T04:02:03.164Z,26.73
2024-02-10T04:03:03.199Z,26.71
2024-02-10T04:04:03.325Z,26.73
2024-02-10T04:05:03.374Z,26.70
2024-02-10T04:06:03.309Z,26.73
2024-02-10T04:07:03.356Z,26.73
2024-02-10T04:08:03.397Z,26.71
2024-02-10T04:09:03.441Z,26.70
2024-02-10T04:10:03.457Z,26.68
2024-02-10T04:11:03.536Z,26.68
2024-02-10T04:12:03.563Z,26.68
2024-02-10T04:13:03.591Z,26.70
2024-02-10T04:14:03.636Z,26.73
2024-02-10T04:15:03.663Z,26.71
2024-02-10T04:16:03.681Z,26.70
2024-02-10T04:17:03.692Z,26.71
2024-02-10T04:18:03.750Z,26.70
2024-02-10T04:19:03.756Z,26.73
2024-02-10T04:20:04.016Z,26.71
2024-02-10T04:21:03.815Z,26.68
2024-02-10T04:22:03.831Z,26.71
2024-02-10T04:23:03.848Z,26.70
2024-02-10T04:24:03.893Z,26.70
2024-02-10T04:25:03.967Z,26.70
2024-02-10T04:26:04.049Z,26.70
2024-02-10T04:27:04.045Z,26.70
2024-02-10T04:28:11.234Z,26.68
2024-02-10T04:29:11.243Z,26.67
2024-02-10T04:30:11.259Z,26.68
2024-02-10T04:31:18.506Z,26.67
2024-02-10T04:32:18.482Z,26.67
2024-02-10T04:33:18.572Z,26.68
2024-02-10T04:34:18.503Z,26.67
2024-02-10T04:35:18.449Z,26.68
2024-02-10T04:36:18.458Z,26.67
2024-02-10T04:37:18.635Z,26.68
2024-02-10T04:38:18.474Z,26.67
2024-02-10T04:39:18.462Z,26.70
2024-02-10T04:40:18.529Z,26.68
2024-02-10T04:41:18.503Z,26.70
2024-02-10T04:42:18.601Z,26.68
2024-02-10T04:43:18.590Z,26.71
2024-02-10T04:44:18.465Z,26.70
2024-02-10T04:45:18.524Z,26.68
2024-02-10T04:46:18.670Z,26.68
2024-02-10T04:47:18.495Z,26.70
2024-02-10T04:48:18.562Z,26.68
2024-02-10T04:49:18.662Z,26.71
2024-02-10T04:50:18.550Z,26.70
2024-02-10T04:51:18.577Z,26.71
2024-02-10T04:52:18.644Z,26.70
2024-02-10T04:53:18.629Z,26.67
2024-02-10T04:54:18.633Z,26.67
2024-02-10T04:55:18.710Z,26.68
2024-02-10T04:56:18.716Z,26.67
2024-02-10T04:57:18.704Z,26.67
2024-02-10T04:58:18.790Z,26.67
2024-02-10T04:59:18.793Z,26.67
2024-02-10T05:00:18.784Z,26.67
2024-02-10T05:01:18.931Z,26.68
2024-02-10T05:02:18.956Z,26.68
2024-02-10T05:03:19.024Z,26.67
2024-02-10T05:04:18.926Z,26.68
2024-02-10T05:05:18.983Z,26.65
2024-02-10T05:06:19.063Z,26.67
2024-02-10T05:07:19.050Z,26.67
2024-02-10T05:08:18.986Z,26.67
2024-02-10T05:09:19.004Z,26.68
2024-02-10T05:10:19.101Z,26.68
2024-02-10T05:11:19.141Z,26.67
2024-02-10T05:12:19.082Z,26.67
2024-02-10T05:13:19.157Z,26.65
2024-02-10T05:14:19.175Z,26.67
2024-02-10T05:15:19.176Z,26.70
2024-02-10T05:16:19.237Z,26.68
2024-02-10T05:17:19.276Z,26.67
2024-02-10T05:18:19.401Z,26.68
2024-02-10T05:19:20.750Z,26.67
2024-02-10T05:20:19.410Z,26.65
2024-02-10T05:21:19.311Z,26.65
2024-02-10T05:22:19.316Z,26.64
2024-02-10T05:23:19.303Z,26.67
2024-02-10T05:24:19.314Z,26.65
2024-02-10T05:25:19.351Z,26.68
2024-02-10T05:26:19.359Z,26.68
2024-02-10T05:27:19.340Z,26.64
2024-02-10T05:28:19.359Z,26.67
2024-02-10T05:29:19.296Z,26.68
2024-02-10T05:30:19.299Z,26.68
2024-02-10T05:31:19.317Z,26.64
2024-02-10T05:32:19.308Z,26.65
2024-02-10T05:33:19.346Z,26.68
2024-02-10T05:34:19.321Z,26.65
2024-02-10T05:35:19.352Z,26.65
2024-02-10T05:36:19.345Z,26.64
2024-02-10T05:37:19.306Z,26.68
2024-02-10T05:38:19.306Z,26.65
2024-02-10T05:39:21.837Z,26.62
2024-02-10T05:40:19.493Z,26.65
2024-02-10T05:41:19.282Z,26.65
2024-02-10T05:42:19.343Z,26.65
2024-02-10T05:43:19.357Z,26.64
2024-02-10T05:44:19.317Z,26.64
2024-02-10T05:45:19.378Z,26.62
2024-02-10T05:46:19.392Z,26.64
2024-02-10T05:47:19.416Z,26.64
2024-02-10T05:48:19.553Z,26.65
2024-02-10T05:49:19.344Z,26.64
2024-02-10T05:50:19.339Z,26.64
2024-02-10T05:51:19.403Z,26.65
2024-02-10T05:52:19.364Z,26.67
2024-02-10T05:53:19.306Z,26.65
2024-02-10T05:54:19.308Z,26.65
2024-02-10T05:55:19.358Z,26.65
2024-02-10T05:56:19.327Z,26.67
2024-02-10T05:57:19.325Z,26.65
2024-02-10T05:58:19.344Z,26.67
2024-02-10T05:59:19.337Z,26.64
2024-02-10T06:00:19.316Z,26.64
2024-02-10T06:01:19.448Z,26.64
2024-02-10T06:02:19.398Z,26.67
2024-02-10T06:03:19.395Z,26.65
2024-02-10T06:04:19.414Z,26.65
2024-02-10T06:05:19.468Z,26.65
2024-02-10T06:06:19.377Z,26.65
2024-02-10T06:07:19.358Z,26.67
2024-02-10T06:08:19.346Z,26.67
2024-02-10T06:09:19.321Z,26.68
2024-02-10T06:10:19.366Z,26.65
2024-02-10T06:11:19.346Z,26.64
2024-02-10T06:12:19.334Z,26.65
2024-02-10T06:13:19.360Z,26.64
2024-02-10T06:14:19.341Z,26.62
2024-02-10T06:15:19.468Z,26.62
2024-02-10T06:16:19.373Z,26.65
2024-02-10T06:17:19.344Z,26.64
2024-02-10T06:18:19.353Z,26.64
2024-02-10T06:19:19.406Z,26.64
2024-02-10T06:20:19.444Z,26.64
2024-02-10T06:21:19.318Z,26.65
2024-02-10T06:22:19.510Z,26.64
2024-02-10T06:23:19.342Z,26.62
2024-02-10T06:24:19.335Z,26.62
2024-02-10T06:25:19.434Z,26.64
2024-02-10T06:26:19.415Z,26.64
2024-02-10T06:27:19.350Z,26.65
2024-02-10T06:28:19.406Z,26.62
2024-02-10T06:29:19.356Z,26.65
2024-02-10T06:30:19.358Z,26.62
2024-02-10T06:31:19.597Z,26.64
2024-02-10T06:32:19.366Z,26.64
2024-02-10T06:33:19.379Z,26.65
2024-02-10T06:34:19.479Z,26.62
2024-02-10T06:35:19.352Z,26.65
2024-02-10T06:36:19.403Z,26.64
2024-02-10T06:37:19.385Z,26.64
2024-02-10T06:38:19.381Z,26.65
2024-02-10T06:39:19.337Z,26.65
2024-02-10T06:40:19.536Z,26.65
2024-02-10T06:41:19.371Z,26.64
2024-02-10T06:42:19.379Z,26.65
2024-02-10T06:43:19.456Z,26.67
2024-02-10T06:44:19.402Z,26.62
2024-02-10T06:45:19.414Z,26.67
2024-02-10T06:46:19.399Z,26.64
2024-02-10T06:47:19.874Z,26.65
2024-02-10T06:48:19.433Z,26.65
2024-02-10T06:49:19.456Z,26.65
2024-02-10T06:50:19.398Z,26.65
2024-02-10T06:51:19.391Z,26.65
2024-02-10T06:52:19.443Z,26.67
2024-02-10T06:53:19.408Z,26.67
2024-02-10T06:54:19.388Z,26.67
2024-02-10T06:55:19.459Z,26.67
2024-02-10T06:56:19.408Z,26.70
2024-02-10T06:57:19.432Z,26.64
2024-02-10T06:58:19.507Z,26.65
2024-02-10T06:59:19.452Z,26.62
2024-02-10T07:00:19.466Z,26.67
2024-02-10T07:01:19.673Z,26.70
2024-02-10T07:02:19.584Z,26.68
2024-02-10T07:03:19.594Z,26.67
2024-02-10T07:04:19.666Z,26.67
2024-02-10T07:05:19.877Z,26.68
2024-02-10T07:06:19.906Z,26.67
2024-02-10T07:07:19.654Z,26.71
2024-02-10T07:08:19.667Z,26.67
2024-02-10T07:09:19.680Z,26.65
2024-02-10T07:10:19.773Z,26.68
2024-02-10T07:11:19.732Z,26.70
2024-02-10T07:12:19.776Z,26.70
2024-02-10T07:13:19.835Z,26.68
2024-02-10T07:14:19.787Z,26.70
2024-02-10T07:15:20.157Z,26.70
2024-02-10T07:16:19.890Z,26.71
2024-02-10T07:17:19.843Z,26.71
2024-02-10T07:18:19.976Z,26.68
2024-02-10T07:19:19.904Z,26.70
2024-02-10T07:20:20.190Z,26.70
2024-02-10T07:21:19.959Z,26.73
2024-02-10T07:22:19.992Z,26.71
2024-02-10T07:23:20.033Z,26.71
2024-02-10T07:24:19.978Z,26.71
2024-02-10T07:25:20.049Z,26.68
2024-02-10T07:26:20.057Z,26.70
2024-02-10T07:27:20.069Z,26.71
2024-02-10T07:28:20.107Z,26.68
2024-02-10T07:29:20.070Z,26.71
2024-02-10T07:30:20.103Z,26.71
2024-02-10T07:31:20.208Z,26.71
2024-02-10T07:32:20.112Z,26.70
2024-02-10T07:33:20.197Z,26.67
2024-02-10T07:34:20.332Z,26.71
2024-02-10T07:35:20.231Z,26.70
2024-02-10T07:36:20.240Z,26.73
2024-02-10T07:37:20.286Z,26.70
2024-02-10T07:38:20.281Z,26.71
2024-02-10T07:39:20.278Z,26.71
2024-02-10T07:40:20.392Z,26.70
2024-02-10T07:41:20.379Z,26.71
2024-02-10T07:42:20.378Z,26.74
2024-02-10T07:43:20.452Z,26.70
2024-02-10T07:44:20.422Z,26.71
2024-02-10T07:45:20.441Z,26.74
2024-02-10T07:46:20.539Z,26.74
2024-02-10T07:47:20.484Z,26.71
2024-02-10T07:48:20.614Z,26.74
2024-02-10T07:49:20.600Z,26.71
2024-02-10T07:50:20.562Z,26.74
2024-02-10T07:51:20.586Z,26.74
2024-02-10T07:52:20.613Z,26.74
2024-02-10T07:53:20.641Z,26.73
2024-02-10T07:54:20.659Z,26.71
2024-02-10T07:55:20.697Z,26.74
2024-02-10T07:56:20.674Z,26.75
2024-02-10T07:57:20.696Z,26.73
2024-02-10T07:58:20.724Z,26.73
2024-02-10T07:59:20.731Z,26.75
2024-02-10T08:00:20.748Z,26.78
2024-02-10T08:01:20.888Z,26.75
2024-02-10T08:02:20.768Z,26.74
2024-02-10T08:03:21.007Z,26.75
2024-02-10T08:04:20.891Z,26.75
2024-02-10T08:05:20.891Z,26.73
2024-02-10T08:06:20.932Z,26.75
2024-02-10T08:07:20.896Z,26.74
2024-02-10T08:08:20.892Z,26.77
2024-02-10T08:09:20.906Z,26.74
2024-02-10T08:10:21.048Z,26.74
2024-02-10T08:11:20.962Z,26.75
2024-02-10T08:12:20.978Z,26.77
2024-02-10T08:13:21.000Z,26.74
2024-02-10T08:14:21.012Z,26.75
2024-02-10T08:15:21.118Z,26.77
2024-02-10T08:16:21.141Z,26.74
2024-02-10T08:17:21.114Z,26.74
2024-02-10T08:18:21.212Z,26.77
2024-02-10T08:19:21.267Z,26.75
2024-02-10T08:20:21.368Z,26.75
2024-02-10T08:21:21.175Z,26.75
2024-02-10T08:22:21.225Z,26.78
2024-02-10T08:23:21.239Z,26.75
2024-02-10T08:24:21.261Z,26.75
2024-02-10T08:25:21.315Z,26.75
2024-02-10T08:26:21.340Z,26.75
2024-02-10T08:27:21.295Z,26.75
2024-02-10T08:28:21.364Z,26.75
2024-02-10T08:29:21.351Z,26.77
2024-02-10T08:30:21.371Z,26.75
2024-02-10T08:31:21.380Z,26.75
2024-02-10T08:32:21.367Z,26.75
2024-02-10T08:33:21.464Z,26.74
2024-02-10T08:34:21.554Z,26.77
2024-02-10T08:35:21.499Z,26.75
2024-02-10T08:36:21.561Z,26.74
2024-02-10T08:37:21.548Z,26.73
2024-02-10T08:38:21.571Z,26.75
2024-02-10T08:39:21.586Z,26.74
2024-02-10T08:40:21.647Z,26.75
2024-02-10T08:41:21.723Z,26.74
2024-02-10T08:42:21.637Z,26.75
2024-02-10T08:43:21.745Z,26.75
2024-02-10T08:44:21.714Z,26.74
2024-02-10T08:45:21.723Z,26.75
2024-02-10T08:46:21.744Z,26.74
2024-02-10T08:47:21.764Z,26.77
2024-02-10T08:48:21.851Z,26.74
2024-02-10T08:49:21.824Z,26.75
2024-02-10T08:50:21.789Z,26.75
2024-02-10T08:51:21.821Z,26.75
2024-02-10T08:52:24.168Z,26.74
2024-02-10T08:53:21.876Z,26.77
2024-02-10T08:54:21.879Z,26.75
2024-02-10T08:55:21.940Z,26.74
2024-02-10T08:56:21.907Z,26.75
2024-02-10T08:57:21.899Z,26.77
2024-02-10T08:58:21.980Z,26.78
2024-02-10T08:59:21.916Z,26.75
2024-02-10T09:00:21.875Z,26.75
2024-02-10T09:01:21.904Z,26.77
2024-02-10T09:02:21.891Z,26.78
2024-02-10T09:03:21.938Z,26.77
2024-02-10T09:04:21.944Z,26.77
2024-02-10T09:05:21.899Z,26.78
2024-02-10T09:06:21.903Z,26.78
2024-02-10T09:07:22.073Z,26.77
2024-02-10T09:08:21.883Z,26.75
2024-02-10T09:09:21.875Z,26.80
2024-02-10T09:10:21.884Z,26.78
2024-02-10T09:11:21.916Z,26.78
2024-02-10T09:12:21.904Z,26.80
2024-02-10T09:13:21.972Z,26.81
2024-02-10T09:14:21.925Z,26.81
2024-02-10T09:15:21.913Z,26.82
2024-02-10T09:16:22.001Z,26.82
2024-02-10T09:17:21.931Z,26.80
2024-02-10T09:18:22.045Z,26.81
2024-02-10T09:19:21.980Z,26.82
2024-02-10T09:20:21.923Z,26.84
2024-02-10T09:21:21.907Z,26.85
2024-02-10T09:22:21.911Z,26.87
2024-02-10T09:23:21.954Z,26.87
2024-02-10T09:24:21.885Z,26.85
2024-02-10T09:25:21.974Z,26.88
2024-02-10T09:26:21.935Z,26.92
2024-02-10T09:27:21.894Z,26.92
2024-02-10T09:28:21.951Z,26.97
2024-02-10T09:29:21.896Z,26.97
2024-02-10T09:30:21.946Z,26.97
2024-02-10T09:31:22.021Z,26.98
2024-02-10T09:32:21.952Z,27.02
2024-02-10T09:33:22.033Z,27.02
2024-02-10T09:34:22.076Z,27.05
2024-02-10T09:35:28.190Z,27.06
2024-02-10T09:36:22.937Z,27.05
2024-02-10T09:37:21.909Z,27.08
2024-02-10T09:38:21.907Z,27.09
2024-02-10T09:39:21.924Z,27.13
2024-02-10T09:40:21.949Z,27.13
2024-02-10T09:41:22.004Z,27.13
2024-02-10T09:42:21.999Z,27.18
2024-02-10T09:43:21.942Z,27.21
2024-02-10T09:44:21.946Z,27.22
2024-02-10T09:45:22.039Z,27.22
2024-02-10T09:46:22.106Z,27.22
2024-02-10T09:47:22.138Z,27.26
2024-02-10T09:48:22.324Z,27.25
2024-02-10T09:49:22.311Z,27.25
2024-02-10T09:50:31.072Z,27.29
2024-02-10T09:51:23.339Z,27.29
2024-02-10T09:52:22.411Z,27.31
2024-02-10T09:53:22.396Z,27.32
2024-02-10T09:54:22.342Z,27.32
2024-02-10T09:55:22.367Z,27.33
2024-02-10T09:56:22.451Z,27.36
2024-02-10T09:57:22.341Z,27.35
2024-02-10T09:58:22.384Z,27.33
2024-02-10T09:59:22.358Z,27.35
2024-02-10T10:00:22.442Z,27.36
2024-02-10T10:01:22.637Z,27.36
2024-02-10T10:02:22.548Z,27.38
2024-02-10T10:03:22.615Z,27.39
2024-02-10T10:04:23.139Z,27.42
2024-02-10T10:05:22.910Z,27.42
2024-02-10T10:06:22.783Z,27.42
2024-02-10T10:07:22.807Z,27.45
2024-02-10T10:08:22.855Z,27.43
2024-02-10T10:09:23.308Z,27.49
2024-02-10T10:10:22.931Z,27.49
2024-02-10T10:11:22.930Z,27.48
2024-02-10T10:12:23.029Z,27.48
2024-02-10T10:13:23.068Z,27.52
2024-02-10T10:14:23.079Z,27.52
2024-02-10T10:15:23.156Z,27.50
2024-02-10T10:16:23.220Z,27.52
2024-02-10T10:17:23.204Z,27.54
2024-02-10T10:18:23.366Z,27.54
2024-02-10T10:19:23.298Z,27.54
2024-02-10T10:20:23.332Z,27.59
2024-02-10T10:21:23.401Z,27.56
2024-02-10T10:22:23.413Z,27.60
2024-02-10T10:23:23.462Z,27.60
2024-02-10T10:24:23.516Z,27.63
2024-02-10T10:25:23.552Z,27.64
2024-02-10T10:26:23.578Z,27.66
2024-02-10T10:27:23.645Z,27.69
2024-02-10T10:28:23.677Z,27.70
2024-02-10T10:29:23.826Z,27.70
2024-02-10T10:30:23.767Z,27.73
2024-02-10T10:31:23.984Z,27.73
2024-02-10T10:32:23.871Z,27.74
2024-02-10T10:33:23.996Z,27.73
2024-02-10T10:34:24.398Z,27.77
2024-02-10T10:35:24.113Z,27.79
2024-02-10T10:36:24.034Z,27.80
2024-02-10T10:37:24.102Z,27.79
2024-02-10T10:38:24.238Z,27.79
2024-02-10T10:39:24.277Z,27.82
2024-02-10T10:40:24.204Z,27.80
2024-02-10T10:41:24.285Z,27.82
2024-02-10T10:42:24.221Z,27.84
2024-02-10T10:43:24.290Z,27.84
2024-02-10T10:44:24.300Z,27.83
2024-02-10T10:45:24.543Z,27.83
2024-02-10T10:46:24.437Z,27.82
2024-02-10T10:47:24.487Z,27.82
2024-02-10T10:48:24.530Z,27.84
2024-02-10T10:49:24.558Z,27.84
2024-02-10T10:50:24.573Z,27.83
2024-02-10T10:51:24.576Z,27.84
2024-02-10T10:52:24.592Z,27.82
2024-02-10T10:53:24.628Z,27.84
2024-02-10T10:54:24.653Z,27.83
2024-02-10T10:55:24.702Z,27.86
2024-02-10T10:56:24.709Z,27.84
2024-02-10T10:57:24.760Z,27.83
2024-02-10T10:58:24.863Z,27.82
2024-02-10T10:59:24.840Z,27.83
2024-02-10T11:00:24.853Z,27.83
2024-02-10T11:01:25.037Z,27.83
2024-02-10T11:02:32.848Z,27.86
2024-02-10T11:03:25.993Z,27.86
2024-02-10T11:04:24.942Z,27.87
2024-02-10T11:05:25.105Z,27.84
2024-02-10T11:06:24.996Z,27.84
2024-02-10T11:07:24.994Z,27.84
2024-02-10T11:08:24.949Z,27.84
2024-02-10T11:09:24.957Z,27.86
2024-02-10T11:10:25.008Z,27.87
2024-02-10T11:11:24.972Z,27.84
2024-02-10T11:12:24.957Z,27.86
2024-02-10T11:13:25.008Z,27.87
2024-02-10T11:14:24.960Z,27.87
2024-02-10T11:15:24.993Z,27.86
2024-02-10T11:16:24.963Z,27.89
2024-02-10T11:17:24.954Z,27.87
2024-02-10T11:18:25.001Z,27.87
2024-02-10T11:19:25.066Z,27.87
2024-02-10T11:20:24.964Z,27.87
2024-02-10T11:21:24.969Z,27.87
2024-02-10T11:22:25.031Z,27.90
2024-02-10T11:23:25.009Z,27.89
2024-02-10T11:24:25.083Z,27.86
2024-02-10T11:25:25.126Z,27.89
2024-02-10T11:26:25.127Z,27.90
2024-02-10T11:27:25.118Z,27.89
2024-02-10T11:28:25.219Z,27.90
2024-02-10T11:29:25.144Z,27.90
2024-02-10T11:30:25.232Z,27.92
2024-02-10T11:31:25.253Z,27.90
2024-02-10T11:32:25.227Z,27.89
2024-02-10T11:33:25.489Z,27.90
2024-02-10T11:34:25.395Z,27.93
2024-02-10T11:35:25.291Z,27.90
2024-02-10T11:36:27.738Z,27.92
2024-02-10T11:37:25.392Z,27.92
2024-02-10T11:38:25.442Z,27.93
2024-02-10T11:39:25.323Z,27.92
2024-02-10T11:40:25.408Z,27.93
2024-02-10T11:41:25.435Z,27.93
2024-02-10T11:42:26.322Z,27.92
2024-02-10T11:43:25.307Z,27.94
2024-02-10T11:44:25.341Z,27.92
2024-02-10T11:45:25.306Z,27.92
2024-02-10T11:46:25.429Z,27.92
2024-02-10T11:47:25.458Z,27.93
2024-02-10T11:48:28.496Z,27.92
2024-02-10T11:49:25.424Z,27.93
2024-02-10T11:50:25.425Z,27.92
2024-02-10T11:51:25.355Z,27.93
2024-02-10T11:52:25.351Z,27.93
2024-02-10T11:53:25.333Z,27.90
2024-02-10T11:54:29.237Z,27.92
2024-02-10T11:55:25.387Z,27.92
2024-02-10T11:56:25.332Z,27.93
2024-02-10T11:57:25.361Z,27.92
2024-02-10T11:58:25.394Z,27.92
2024-02-10T11:59:25.362Z,27.92
2024-02-10T12:00:25.355Z,27.93
2024-02-10T12:01:25.444Z,27.93
2024-02-10T12:02:25.638Z,27.90
2024-02-10T12:03:25.333Z,27.89
2024-02-10T12:04:25.406Z,27.92
2024-02-10T12:05:25.503Z,27.92
2024-02-10T12:06:27.252Z,27.92
2024-02-10T12:07:25.367Z,27.90
2024-02-10T12:08:25.315Z,27.93
2024-02-10T12:09:25.365Z,27.92
2024-02-10T12:10:25.409Z,27.90
2024-02-10T12:11:25.340Z,27.90
2024-02-10T12:12:25.395Z,27.87
2024-02-10T12:13:25.390Z,27.89
2024-02-10T12:14:25.350Z,27.90
2024-02-10T12:15:25.340Z,27.90
2024-02-10T12:16:25.387Z,27.89
2024-02-10T12:17:25.448Z,27.87
2024-02-10T12:18:25.405Z,27.89
2024-02-10T12:19:25.383Z,27.89
2024-02-10T12:20:25.366Z,27.86
2024-02-10T12:21:25.500Z,27.90
2024-02-10T12:22:25.418Z,27.87
2024-02-10T12:23:25.366Z,27.89
2024-02-10T12:24:25.397Z,27.86
2024-02-10T12:25:25.427Z,27.89
2024-02-10T12:26:25.346Z,27.90
2024-02-10T12:27:25.345Z,27.87
2024-02-10T12:28:25.424Z,27.89
2024-02-10T12:29:25.412Z,27.87
2024-02-10T12:30:25.367Z,27.87
2024-02-10T12:31:25.432Z,27.86
2024-02-10T12:32:25.390Z,27.87
2024-02-10T12:33:25.403Z,27.87
2024-02-10T12:34:25.472Z,27.86
2024-02-10T12:35:25.477Z,27.86
2024-02-10T12:36:25.385Z,27.86
2024-02-10T12:37:25.446Z,27.84
2024-02-10T12:38:25.409Z,27.86
2024-02-10T12:39:25.383Z,27.86
2024-02-10T12:40:25.398Z,27.84
2024-02-10T12:41:25.386Z,27.83
2024-02-10T12:42:25.380Z,27.84
2024-02-10T12:43:25.958Z,27.84
2024-02-10T12:44:25.466Z,27.83
2024-02-10T12:45:25.415Z,27.83
2024-02-10T12:46:25.424Z,27.84
2024-02-10T12:47:25.449Z,27.83
2024-02-10T12:48:25.461Z,27.83
2024-02-10T12:49:25.469Z,27.82
2024-02-10T12:50:25.380Z,27.82
2024-02-10T12:51:25.509Z,27.83
2024-02-10T12:52:25.414Z,27.82
2024-02-10T12:53:25.405Z,27.82